sensor_id;sensor_type;location;lat;lon;timestamp;temperature;humidity
35682;DHT22;21805;51.022;4.782;2022-08-23T00:01:48;20.90;99.90
35682;DHT22;21805;51.022;4.782;2022-08-23T00:04:26;20.80;99.90
35682;DHT22;21805;51.022;4.782;2022-08-23T00:06:56;20.80;99.90
35682;DHT22;21805;51.022;4.782;2022-08-23T00:09:33;20.80;99.90
35682;DHT22;21805;51.022;4.782;2022-08-23T00:14:53;20.60;99.90
35682;DHT22;21805;51.022;4.782;2022-08-23T00:17:43;20.60;99.90
35682;DHT22;21805;51.022;4.782;2022-08-23T00:31:37;20.50;99.90
35682;DHT22;21805;51.022;4.782;2022-08-23T00:34:12;20.50;99.90
35682;DHT22;21805;51.022;4.782;2022-08-23T00:36:41;20.60;99.90
35682;DHT22;21805;51.022;4.782;2022-08-23T00:44:32;20.50;99.90
35682;DHT22;21805;51.022;4.782;2022-08-23T00:47:16;20.50;99.90
35682;DHT22;21805;51.022;4.782;2022-08-23T00:55:49;20.50;99.90
35682;DHT22;21805;51.022;4.782;2022-08-23T00:58:21;20.50;99.90
35682;DHT22;21805;51.022;4.782;2022-08-23T01:00:51;20.50;99.90
35682;DHT22;21805;51.022;4.782;2022-08-23T01:05:53;20.40;99.90
35682;DHT22;21805;51.022;4.782;2022-08-23T01:08:24;20.30;99.90
35682;DHT22;21805;51.022;4.782;2022-08-23T01:17:00;20.40;99.90
35682;DHT22;21805;51.022;4.782;2022-08-23T01:19:54;20.40;99.90
35682;DHT22;21805;51.022;4.782;2022-08-23T01:22:42;20.40;99.90
35682;DHT22;21805;51.022;4.782;2022-08-23T01:25:27;20.30;99.90
35682;DHT22;21805;51.022;4.782;2022-08-23T01:28:26;20.30;99.90
35682;DHT22;21805;51.022;4.782;2022-08-23T01:31:16;20.30;99.90
35682;DHT22;21805;51.022;4.782;2022-08-23T01:34:17;20.30;99.90
35682;DHT22;21805;51.022;4.782;2022-08-23T01:37:41;20.30;99.90
35682;DHT22;21805;51.022;4.782;2022-08-23T01:42:51;20.20;99.90
35682;DHT22;21805;51.022;4.782;2022-08-23T01:45:19;20.10;99.90
35682;DHT22;21805;51.022;4.782;2022-08-23T01:47:48;20.10;99.90
35682;DHT22;21805;51.022;4.782;2022-08-23T01:50:15;20.10;99.90
35682;DHT22;21805;51.022;4.782;2022-08-23T01:52:47;20.10;99.90
35682;DHT22;21805;51.022;4.782;2022-08-23T01:55:19;20.10;99.90
35682;DHT22;21805;51.022;4.782;2022-08-23T01:57:48;20.10;99.90
35682;DHT22;21805;51.022;4.782;2022-08-23T02:00:18;20.10;99.90
35682;DHT22;21805;51.022;4.782;2022-08-23T02:02:45;20.00;99.90
35682;DHT22;21805;51.022;4.782;2022-08-23T02:10:45;19.90;99.90
35682;DHT22;21805;51.022;4.782;2022-08-23T02:13:35;19.90;99.90
35682;DHT22;21805;51.022;4.782;2022-08-23T02:16:32;19.90;99.90
35682;DHT22;21805;51.022;4.782;2022-08-23T02:19:24;19.90;99.90
35682;DHT22;21805;51.022;4.782;2022-08-23T02:21:51;19.90;99.90
35682;DHT22;21805;51.022;4.782;2022-08-23T02:27:27;19.90;99.90
35682;DHT22;21805;51.022;4.782;2022-08-23T02:33:33;19.80;99.90
35682;DHT22;21805;51.022;4.782;2022-08-23T02:36:44;19.70;99.90
35682;DHT22;21805;51.022;4.782;2022-08-23T02:39:28;19.70;99.90
35682;DHT22;21805;51.022;4.782;2022-08-23T02:42:14;19.70;99.90
35682;DHT22;21805;51.022;4.782;2022-08-23T02:45:10;19.70;99.90
35682;DHT22;21805;51.022;4.782;2022-08-23T02:47:36;19.70;99.90
35682;DHT22;21805;51.022;4.782;2022-08-23T02:50:07;19.70;99.90
35682;DHT22;21805;51.022;4.782;2022-08-23T02:52:34;19.60;99.90
35682;DHT22;21805;51.022;4.782;2022-08-23T02:55:02;19.70;99.90
35682;DHT22;21805;51.022;4.782;2022-08-23T02:58:04;19.70;99.90
35682;DHT22;21805;51.022;4.782;2022-08-23T03:07:04;19.80;99.90
35682;DHT22;21805;51.022;4.782;2022-08-23T03:09:45;19.70;99.90
35682;DHT22;21805;51.022;4.782;2022-08-23T03:12:40;19.70;99.90
35682;DHT22;21805;51.022;4.782;2022-08-23T03:15:06;19.80;99.90
35682;DHT22;21805;51.022;4.782;2022-08-23T03:17:34;19.80;99.90
35682;DHT22;21805;51.022;4.782;2022-08-23T03:23:03;19.70;99.90
35682;DHT22;21805;51.022;4.782;2022-08-23T03:25:29;19.60;99.90
35682;DHT22;21805;51.022;4.782;2022-08-23T03:30:44;19.80;99.90
35682;DHT22;21805;51.022;4.782;2022-08-23T03:33:11;19.70;99.90
35682;DHT22;21805;51.022;4.782;2022-08-23T03:35:40;19.70;99.90
35682;DHT22;21805;51.022;4.782;2022-08-23T03:38:07;19.70;99.90
35682;DHT22;21805;51.022;4.782;2022-08-23T03:40:33;19.80;99.90
35682;DHT22;21805;51.022;4.782;2022-08-23T03:43:03;19.70;99.90
35682;DHT22;21805;51.022;4.782;2022-08-23T03:48:37;19.70;99.90
35682;DHT22;21805;51.022;4.782;2022-08-23T03:51:08;19.70;99.90
35682;DHT22;21805;51.022;4.782;2022-08-23T03:53:36;19.60;99.90
35682;DHT22;21805;51.022;4.782;2022-08-23T03:56:02;19.50;99.90
35682;DHT22;21805;51.022;4.782;2022-08-23T03:58:31;19.60;99.90
35682;DHT22;21805;51.022;4.782;2022-08-23T04:01:00;19.50;99.90
35682;DHT22;21805;51.022;4.782;2022-08-23T04:06:26;19.50;99.90
35682;DHT22;21805;51.022;4.782;2022-08-23T04:12:00;19.40;99.90
35682;DHT22;21805;51.022;4.782;2022-08-23T04:14:54;19.30;99.90
35682;DHT22;21805;51.022;4.782;2022-08-23T04:17:23;19.20;99.90
35682;DHT22;21805;51.022;4.782;2022-08-23T04:19:49;19.20;99.90
35682;DHT22;21805;51.022;4.782;2022-08-23T04:24:55;19.30;99.90
35682;DHT22;21805;51.022;4.782;2022-08-23T04:27:28;19.30;99.90
35682;DHT22;21805;51.022;4.782;2022-08-23T04:32:45;19.20;99.90
35682;DHT22;21805;51.022;4.782;2022-08-23T04:35:11;19.20;99.90
35682;DHT22;21805;51.022;4.782;2022-08-23T04:37:44;19.30;99.90
35682;DHT22;21805;51.022;4.782;2022-08-23T04:40:10;19.30;99.90
35682;DHT22;21805;51.022;4.782;2022-08-23T04:42:55;19.30;99.90
35682;DHT22;21805;51.022;4.782;2022-08-23T04:48:31;19.30;99.90
35682;DHT22;21805;51.022;4.782;2022-08-23T04:50:59;19.30;99.90
35682;DHT22;21805;51.022;4.782;2022-08-23T04:59:28;19.30;99.90
35682;DHT22;21805;51.022;4.782;2022-08-23T05:02:22;19.40;99.90
35682;DHT22;21805;51.022;4.782;2022-08-23T05:08:06;19.40;99.90
35682;DHT22;21805;51.022;4.782;2022-08-23T05:11:09;19.50;99.90
35682;DHT22;21805;51.022;4.782;2022-08-23T05:14:08;19.60;99.90
35682;DHT22;21805;51.022;4.782;2022-08-23T05:16:42;19.60;99.90
35682;DHT22;21805;51.022;4.782;2022-08-23T05:19:08;19.60;99.90
35682;DHT22;21805;51.022;4.782;2022-08-23T05:21:40;19.70;99.90
35682;DHT22;21805;51.022;4.782;2022-08-23T05:24:43;19.70;99.90
35682;DHT22;21805;51.022;4.782;2022-08-23T05:27:31;19.70;99.90
35682;DHT22;21805;51.022;4.782;2022-08-23T05:30:17;19.70;99.90
35682;DHT22;21805;51.022;4.782;2022-08-23T05:32:43;19.70;99.90
35682;DHT22;21805;51.022;4.782;2022-08-23T05:40:20;19.80;99.90
35682;DHT22;21805;51.022;4.782;2022-08-23T05:42:47;19.90;99.90
35682;DHT22;21805;51.022;4.782;2022-08-23T06:07:27;20.20;99.90
35682;DHT22;21805;51.022;4.782;2022-08-23T06:12:41;20.20;99.90
35682;DHT22;21805;51.022;4.782;2022-08-23T06:25:29;21.10;99.90
35682;DHT22;21805;51.022;4.782;2022-08-23T06:35:45;22.00;99.90
35682;DHT22;21805;51.022;4.782;2022-08-23T07:27:18;24.00;99.90
35682;DHT22;21805;51.022;4.782;2022-08-23T09:09:54;28.20;99.90
35682;DHT22;21805;51.022;4.782;2022-08-23T09:18:52;28.30;99.90
35682;DHT22;21805;51.022;4.782;2022-08-23T17:45:32;28.90;99.80
35682;DHT22;21805;51.022;4.782;2022-08-23T17:48:02;28.80;99.90
35682;DHT22;21805;51.022;4.782;2022-08-23T17:50:28;28.80;99.90
35682;DHT22;21805;51.022;4.782;2022-08-23T17:52:55;28.70;99.90
35682;DHT22;21805;51.022;4.782;2022-08-23T17:55:20;28.70;99.90
35682;DHT22;21805;51.022;4.782;2022-08-23T18:00:19;28.50;99.90
35682;DHT22;21805;51.022;4.782;2022-08-23T18:02:46;28.60;99.90
35682;DHT22;21805;51.022;4.782;2022-08-23T18:05:13;28.50;99.90
35682;DHT22;21805;51.022;4.782;2022-08-23T18:07:41;28.50;99.90
